This is the latest recevied weather packets stored in our database for station/object KMCF. If no packets are shown the sender has not sent any weather packets the latest 1 day(s).
| Time | Temp. | Humidity | Pressure | Rain* | Wind** | Luminosity | Snow |
|---|---|---|---|---|---|---|---|
| 1778100214 | 30.56° C | 62% | 1015.2 hPa | - | - | - | - |
| 1778099016 | 30.56° C | 62% | 1015.2 hPa | - | - | - | - |
| 1778097815 | 30.56° C | 62% | 1015.2 hPa | - | - | - | - |
| 1778097217 | 30° C | 66% | 1015.9 hPa | - | - | - | - |
| 1778096615 | 30° C | 66% | 1015.9 hPa | - | - | - | - |
| 1778094216 | 30° C | 66% | 1015.9 hPa | - | - | - | - |
| 1778090739 | 30.56° C | 62% | 1016.3 hPa | - | - | - | - |
| 1778090014 | 30° C | 62% | 1016.9 hPa | - | - | - | - |
| 1778089415 | 30° C | 62% | 1016.9 hPa | - | - | - | - |
| 1778088818 | 30° C | 62% | 1016.9 hPa | - | - | - | - |
| 1778087017 | 30° C | 62% | 1016.9 hPa | - | - | - | - |
| 1778084617 | 28.89° C | 62% | 1016.9 hPa | - | - | - | - |
| 1778084017 | 28.89° C | 62% | 1016.9 hPa | - | - | - | - |
| 1778082215 | 28.89° C | 62% | 1016.9 hPa | - | - | - | - |
| 1778081616 | 28.89° C | 62% | 1016.9 hPa | - | - | - | - |
| 1778081017 | 28.89° C | 62% | 1016.9 hPa | - | - | - | - |
| 1778080416 | 28.89° C | 62% | 1016.9 hPa | - | - | - | - |
| 1778078016 | 26.67° C | 69% | 1016.9 hPa | - | - | - | - |
| 1778077412 | 26.67° C | 69% | 1016.9 hPa | - | - | - | - |
| 1778075614 | 25° C | 78% | 1016.6 hPa | - | - | - | - |
| 1778075013 | 25° C | 78% | 1016.6 hPa | - | - | - | - |
| 1778070813 | 22.78° C | 88% | 1015.9 hPa | - | - | - | - |
| 1778067814 | 21.67° C | 88% | 1015.6 hPa | - | - | - | - |
| 1778063614 | 21.67° C | 83% | 1015.2 hPa | - | - | - | - |
| 1778063016 | 21.67° C | 83% | 1015.2 hPa | - | - | - | - |
* Rain since midnight (hover to see other rain measurements)
** Current wind speed in m/s (hover to see current wind gust speed)